»·PEaware :: N119BK KSDL-KPRC

N119BK :: KSDL-KPRC

FLIGHT INFORMATION

Flight Status: Arrived
Operator: Privately registered:
United States
More flights under this callsign
Pilot: Moussa A. (33317)
Aircraft: SOCATA TBM-900
(TBM9)
More flights by this aircraft type
Origin: KSDL Scottsdale
United States
Destination: KPRC Love
United States
More flights between these airports :: More routes between these airports
Route: JONHH V105 DRK
File this flight plan on PilotEdge
Remarks:
Altitude:
(Current/Filed)
16,000ft
Speed:
(Current/Filed)
300kts
Departed: 17-Jun-23 11:21 AM
Arrived: 17-Jun-23 11:57 AM
Distance/Time
Traveled:
67nm/0:35
Distance/Time
To Go:
Arrived

Flight Plot

Page will automatically refresh every two minutes.

Flight plan parsing failed; only flown route is shown


Map Options




Map Legend


Flown Route
Filed Route
Departure Airport
Arrival Airport
Navaid (VOR, NDB)
Fix

Horizontal Profiles

Position Reports

Time Latitude Longitude Heading Altitude Ground
Speed
17-Jun-23 10:38 33.622688 -111.913994 138 1470ft 0kts
17-Jun-23 10:39 33.622688 -111.913994 138 1470ft 0kts
17-Jun-23 10:40 33.622688 -111.913994 138 1470ft 0kts
17-Jun-23 10:41 33.622688 -111.913994 138 1470ft 0kts
17-Jun-23 10:42 33.622688 -111.913994 138 1470ft 0kts
17-Jun-23 10:43 33.622688 -111.913994 138 1470ft 0kts
17-Jun-23 10:44 33.622688 -111.913994 138 1470ft 0kts
17-Jun-23 10:45 33.622688 -111.913994 138 1470ft 0kts
17-Jun-23 10:46 33.622688 -111.913994 138 1470ft 0kts
17-Jun-23 10:47 33.622688 -111.913994 138 1470ft 0kts
17-Jun-23 10:48 33.622688 -111.913994 138 1470ft 0kts
17-Jun-23 10:49 33.622688 -111.913994 138 1470ft 0kts
17-Jun-23 10:50 33.622688 -111.913994 138 1470ft 0kts
17-Jun-23 10:51 33.622688 -111.913994 138 1470ft 0kts
17-Jun-23 10:52 33.622688 -111.913994 138 1470ft 0kts
17-Jun-23 10:53 33.622688 -111.913994 138 1470ft 0kts
17-Jun-23 10:54 33.622688 -111.913994 138 1470ft 0kts
17-Jun-23 10:55 33.622688 -111.913994 138 1470ft 0kts
17-Jun-23 10:56 33.622688 -111.913994 138 1470ft 0kts
17-Jun-23 10:57 33.622688 -111.913994 138 1470ft 0kts
17-Jun-23 10:58 33.622688 -111.913994 138 1470ft 0kts
17-Jun-23 10:59 33.622688 -111.913994 138 1470ft 0kts
17-Jun-23 11:00 33.622688 -111.913994 138 1470ft 0kts
17-Jun-23 11:01 33.622688 -111.913994 138 1470ft 0kts
17-Jun-23 11:02 33.622688 -111.913994 138 1470ft 0kts
17-Jun-23 11:03 33.622688 -111.913994 138 1470ft 0kts
17-Jun-23 11:04 33.622688 -111.913994 138 1470ft 0kts
17-Jun-23 11:05 33.622688 -111.913994 138 1470ft 0kts
17-Jun-23 11:06 33.622688 -111.913994 138 1470ft 0kts
17-Jun-23 11:07 33.622688 -111.913994 138 1470ft 0kts
17-Jun-23 11:08 33.622688 -111.913994 138 1470ft 0kts
17-Jun-23 11:09 33.622688 -111.913994 138 1470ft 0kts
17-Jun-23 11:10 33.622688 -111.913994 138 1470ft 0kts
17-Jun-23 11:11 33.622688 -111.913994 138 1470ft 0kts
17-Jun-23 11:12 33.622608 -111.913909 138 1469ft 4kts
17-Jun-23 11:13 33.620833 -111.914060 223 1463ft 14kts
17-Jun-23 11:14 33.617568 -111.917830 223 1451ft 17kts
17-Jun-23 11:15 33.615144 -111.920296 163 1442ft 0kts
17-Jun-23 11:16 33.615144 -111.920296 163 1442ft 0kts
17-Jun-23 11:17 33.615144 -111.920296 163 1442ft 0kts
17-Jun-23 11:18 33.615144 -111.920296 163 1442ft 0kts
17-Jun-23 11:19 33.614951 -111.919683 43 1443ft 0kts
17-Jun-23 11:20 33.625234 -111.907466 45 1765ft 135kts
17-Jun-23 11:21 33.658924 -111.890240 310 4239ft 160kts
17-Jun-23 11:22 33.659036 -111.938654 264 6979ft 149kts
17-Jun-23 11:23 33.671970 -111.986229 303 9690ft 160kts
17-Jun-23 11:24 33.698114 -112.028787 305 12669ft 161kts
17-Jun-23 11:25 33.725997 -112.072716 303 15040ft 172kts
17-Jun-23 11:26 33.759865 -112.126309 304 16013ft 249kts
17-Jun-23 11:27 33.806126 -112.198598 312 15948ft 285kts
17-Jun-23 11:28 33.878317 -112.242404 331 15967ft 293kts
17-Jun-23 11:29 33.947956 -112.285264 331 15974ft 294kts
17-Jun-23 11:30 34.024453 -112.332440 331 15881ft 298kts
17-Jun-23 11:31 34.098194 -112.378239 331 15794ft 296kts
17-Jun-23 11:32 34.170242 -112.423238 331 15397ft 307kts
17-Jun-23 11:33 34.242386 -112.467358 332 14003ft 313kts
17-Jun-23 11:34 34.328181 -112.495534 10 12750ft 301kts
17-Jun-23 11:35 34.408545 -112.492739 2 11774ft 294kts
17-Jun-23 11:36 34.489662 -112.489329 2 10958ft 285kts
17-Jun-23 11:37 34.572112 -112.485852 2 10321ft 278kts
17-Jun-23 11:38 34.649478 -112.482587 2 9998ft 268kts
17-Jun-23 11:39 34.714070 -112.482671 334 10032ft 181kts
17-Jun-23 11:40 34.744210 -112.516818 316 9807ft 133kts
17-Jun-23 11:41 34.772673 -112.553859 308 8967ft 165kts
17-Jun-23 11:42 34.808019 -112.586911 359 8102ft 159kts
17-Jun-23 11:43 34.850800 -112.592934 311 7156ft 158kts
17-Jun-23 11:44 34.830157 -112.613661 147 6602ft 144kts
17-Jun-23 11:45 34.800918 -112.583816 139 6638ft 132kts
17-Jun-23 11:46 34.773222 -112.554365 140 6629ft 130kts
17-Jun-23 11:47 34.745120 -112.525204 140 6579ft 132kts
17-Jun-23 11:48 34.717152 -112.494952 139 6617ft 140kts
17-Jun-23 11:49 34.688799 -112.465222 138 6363ft 125kts
17-Jun-23 11:50 34.662914 -112.438132 137 5627ft 123kts
17-Jun-23 11:51 34.636889 -112.410036 136 5682ft 131kts
17-Jun-23 11:52 34.608637 -112.381922 154 5645ft 131kts
17-Jun-23 11:53 34.602936 -112.415517 334 5650ft 131kts
17-Jun-23 11:54 34.632413 -112.436599 10 5360ft 112kts
17-Jun-23 11:55 34.653299 -112.420721 39 4992ft 59kts
17-Jun-23 11:56 34.653954 -112.418836 131 4996ft 4kts
17-Jun-23 11:57 34.653948 -112.418827 130 4996ft 0kts
17-Jun-23 11:58 34.652916 -112.419431 222 5002ft 11kts
17-Jun-23 11:59 34.650111 -112.422379 220 5004ft 12kts
17-Jun-23 12:00 34.649293 -112.423245 221 5011ft 0kts
17-Jun-23 12:01 34.649293 -112.423245 221 5011ft 0kts
17-Jun-23 12:02 34.649201 -112.423157 69 5011ft 2kts
17-Jun-23 12:03 34.648071 -112.421314 323 5022ft 0kts

Navigation Log

Ident Type
Flight plan parsing failed, navigation log unavailable